METAR Analyzer

一覧表示

Hello, Guest. (Login)

RJSO  -  大湊基地

観測日時
2020-10-25 13:00 (UTC) (71分前)
気温
9
露点
6
湿数
3
相対湿度
81.5%
QNH
1009.8hPa
推定現地気圧
1009.0hPa
推定海面気圧
1009.9hPa
体感温度
-0.8
(無風時)
11.8
HI
8.1
気温前日比
±0
体感温度前日比
+1.4
HI前日比
+0.2
水平視程
>10000m
鉛直視程
データなし
雲底高度
4500ft AGL
V/I
VMC (VFR)
RVR
No RVR data
卓越風
7kt from 260°
ガスト
No gust
降水
報告なし
その他の天気
報告なし
少しの(2/8) 積雲 @ 3000ft AGL / 隙間のある(6/8) 積雲 @ 4500ft AGL

RJSO 251300Z 26007KT 9999 FEW030 BKN045 09/06 Q1009 RMK 2CU030 6CU045 A2982

RJSM/MSJ  -  三沢飛行場

観測日時
2020-10-25 13:00 (UTC) (71分前)
気温
8
露点
6
湿数
2
相対湿度
87.2%
QNH
1010.5hPa
推定現地気圧
1006.2hPa
推定海面気圧
1010.6hPa
体感温度
-1.6
(無風時)
11
HI
7.1
気温前日比
±0
体感温度前日比
+2.2
HI前日比
+0.1
水平視程
>10000m
鉛直視程
データなし
雲底高度
4000ft AGL
V/I
VMC (VFR)
RVR
No RVR data
卓越風
6kt from 280°
ガスト
No gust
降水
弱いしゅう雨性の雨
その他の天気
報告なし
少しの(2/8) 積雲 @ 3000ft AGL / 隙間のある(5/8) 積雲 @ 4000ft AGL

RJSM 251300Z 28006KT 9999 -SHRA FEW030 BKN040 08/06 Q1010 RMK 2CU030 5CU040 A2984

株式会社マネーパートナーズ 【Manepa Card】

RJSH/HHE  -  八戸飛行場

観測日時
2020-10-25 13:00 (UTC) (71分前)
気温
9
露点
5
湿数
4
相対湿度
76%
QNH
1010.5hPa
推定現地気圧
1005.0hPa
推定海面気圧
1010.6hPa
体感温度
11.9
(無風時)
11.9
HI
7.9
気温前日比
+1
体感温度前日比
+16.9
HI前日比
+0.8
水平視程
>10000m
鉛直視程
データなし
雲底高度
No dense clouds
V/I
VMC (VFR)
RVR
No RVR data
卓越風
静穏
ガスト
No gust
降水
報告なし
その他の天気
報告なし
少しの(1/8) 積雲 @ 3000ft AGL / 散在する(3/8) 高積雲 @ 8000ft AGL

RJSH 251300Z 00000KT 9999 FEW030 SCT080 09/05 Q1010 RMK 1CU030 3AC080 A2984

RJST  -  松島基地

観測日時
2020-10-25 13:00 (UTC) (71分前)
気温
12
露点
5
湿数
7
相対湿度
62.2%
QNH
1012.5hPa
推定現地気圧
1012.3hPa
推定海面気圧
1012.5hPa
体感温度
10.1
(無風時)
14.2
HI
10.9
気温前日比
+4
体感温度前日比
+13.1
HI前日比
+4.1
水平視程
>10000m
鉛直視程
データなし
雲底高度
7000ft AGL
V/I
VMC (VFR)
RVR
No RVR data
卓越風
1kt from VRB
ガスト
No gust
降水
報告なし
その他の天気
報告なし
少しの(2/8) 層積雲 @ 5000ft AGL / 隙間のある(5/8) 高積雲 @ 7000ft AGL

RJST 251300Z VRB01KT 9999 FEW050 BKN070 12/05 Q1012 RMK 2SC050 5AC070 A2990

7.4msec